sensor_id;sensor_type;location;lat;lon;timestamp;P1;durP1;ratioP1;P2;durP2;ratioP2
62588;SDS011;58504;48.770;9.148;2023-04-07T00:00:22;1.08;;;0.50;;
62588;SDS011;58504;48.770;9.148;2023-04-07T00:02:49;1.02;;;0.70;;
62588;SDS011;58504;48.770;9.148;2023-04-07T00:05:16;0.80;;;0.80;;
62588;SDS011;58504;48.770;9.148;2023-04-07T00:07:44;0.70;;;0.70;;
62588;SDS011;58504;48.770;9.148;2023-04-07T00:10:11;1.13;;;0.60;;
62588;SDS011;58504;48.770;9.148;2023-04-07T00:12:38;0.60;;;0.60;;
62588;SDS011;58504;48.770;9.148;2023-04-07T00:15:05;0.77;;;0.77;;
62588;SDS011;58504;48.770;9.148;2023-04-07T00:17:32;0.50;;;0.50;;
62588;SDS011;58504;48.770;9.148;2023-04-07T00:19:59;0.40;;;0.40;;
62588;SDS011;58504;48.770;9.148;2023-04-07T00:22:26;0.63;;;0.63;;
62588;SDS011;58504;48.770;9.148;2023-04-07T00:24:54;0.73;;;0.73;;
62588;SDS011;58504;48.770;9.148;2023-04-07T00:27:21;0.57;;;0.57;;
62588;SDS011;58504;48.770;9.148;2023-04-07T00:29:48;0.80;;;0.80;;
62588;SDS011;58504;48.770;9.148;2023-04-07T00:32:14;1.08;;;1.00;;
62588;SDS011;58504;48.770;9.148;2023-04-07T00:34:41;0.65;;;0.65;;
62588;SDS011;58504;48.770;9.148;2023-04-07T00:37:08;0.60;;;0.60;;
62588;SDS011;58504;48.770;9.148;2023-04-07T00:39:34;2.03;;;0.88;;
62588;SDS011;58504;48.770;9.148;2023-04-07T00:42:03;0.55;;;0.55;;
62588;SDS011;58504;48.770;9.148;2023-04-07T00:44:30;0.60;;;0.60;;
62588;SDS011;58504;48.770;9.148;2023-04-07T00:46:57;0.60;;;0.60;;
62588;SDS011;58504;48.770;9.148;2023-04-07T00:49:24;0.60;;;0.60;;
62588;SDS011;58504;48.770;9.148;2023-04-07T00:51:53;0.60;;;0.60;;
62588;SDS011;58504;48.770;9.148;2023-04-07T00:54:20;0.57;;;0.57;;
62588;SDS011;58504;48.770;9.148;2023-04-07T00:56:48;0.90;;;0.90;;
62588;SDS011;58504;48.770;9.148;2023-04-07T00:59:16;0.65;;;0.65;;
62588;SDS011;58504;48.770;9.148;2023-04-07T01:01:44;1.45;;;0.60;;
62588;SDS011;58504;48.770;9.148;2023-04-07T01:04:16;0.80;;;0.80;;
62588;SDS011;58504;48.770;9.148;2023-04-07T01:06:51;0.50;;;0.50;;
62588;SDS011;58504;48.770;9.148;2023-04-07T01:09:24;0.65;;;0.65;;
62588;SDS011;58504;48.770;9.148;2023-04-07T01:11:56;0.50;;;0.50;;
62588;SDS011;58504;48.770;9.148;2023-04-07T01:14:32;0.50;;;0.50;;
62588;SDS011;58504;48.770;9.148;2023-04-07T01:17:05;0.60;;;0.60;;
62588;SDS011;58504;48.770;9.148;2023-04-07T01:19:33;0.77;;;0.77;;
62588;SDS011;58504;48.770;9.148;2023-04-07T01:22:03;0.60;;;0.60;;
62588;SDS011;58504;48.770;9.148;2023-04-07T01:24:41;0.70;;;0.70;;
62588;SDS011;58504;48.770;9.148;2023-04-07T01:27:30;0.60;;;0.60;;
62588;SDS011;58504;48.770;9.148;2023-04-07T01:30:03;0.50;;;0.50;;
62588;SDS011;58504;48.770;9.148;2023-04-07T01:32:34;0.52;;;0.52;;
62588;SDS011;58504;48.770;9.148;2023-04-07T01:35:04;0.50;;;0.50;;
62588;SDS011;58504;48.770;9.148;2023-04-07T01:37:35;0.65;;;0.65;;
62588;SDS011;58504;48.770;9.148;2023-04-07T01:40:03;0.80;;;0.80;;
62588;SDS011;58504;48.770;9.148;2023-04-07T01:42:32;0.80;;;0.80;;
62588;SDS011;58504;48.770;9.148;2023-04-07T01:45:01;0.63;;;0.63;;
62588;SDS011;58504;48.770;9.148;2023-04-07T01:47:30;0.60;;;0.60;;
62588;SDS011;58504;48.770;9.148;2023-04-07T01:49:58;0.98;;;0.98;;
62588;SDS011;58504;48.770;9.148;2023-04-07T01:52:28;0.80;;;0.80;;
62588;SDS011;58504;48.770;9.148;2023-04-07T01:54:56;0.50;;;0.50;;
62588;SDS011;58504;48.770;9.148;2023-04-07T01:57:22;0.70;;;0.70;;
62588;SDS011;58504;48.770;9.148;2023-04-07T01:59:49;0.50;;;0.43;;
62588;SDS011;58504;48.770;9.148;2023-04-07T02:02:17;0.98;;;0.95;;
62588;SDS011;58504;48.770;9.148;2023-04-07T02:04:48;0.57;;;0.55;;
62588;SDS011;58504;48.770;9.148;2023-04-07T02:07:19;1.27;;;0.57;;
62588;SDS011;58504;48.770;9.148;2023-04-07T02:09:50;0.50;;;0.50;;
62588;SDS011;58504;48.770;9.148;2023-04-07T02:12:21;0.73;;;0.73;;
62588;SDS011;58504;48.770;9.148;2023-04-07T02:14:51;0.50;;;0.50;;
62588;SDS011;58504;48.770;9.148;2023-04-07T02:17:20;0.60;;;0.60;;
62588;SDS011;58504;48.770;9.148;2023-04-07T02:19:48;0.50;;;0.50;;
62588;SDS011;58504;48.770;9.148;2023-04-07T02:22:17;0.95;;;0.95;;
62588;SDS011;58504;48.770;9.148;2023-04-07T02:24:44;0.60;;;0.60;;
62588;SDS011;58504;48.770;9.148;2023-04-07T02:27:11;1.95;;;0.80;;
62588;SDS011;58504;48.770;9.148;2023-04-07T02:29:38;0.70;;;0.70;;
62588;SDS011;58504;48.770;9.148;2023-04-07T02:32:04;0.73;;;0.60;;
62588;SDS011;58504;48.770;9.148;2023-04-07T02:34:33;0.50;;;0.50;;
62588;SDS011;58504;48.770;9.148;2023-04-07T02:36:59;0.70;;;0.70;;
62588;SDS011;58504;48.770;9.148;2023-04-07T02:39:26;0.55;;;0.55;;
62588;SDS011;58504;48.770;9.148;2023-04-07T02:41:53;0.70;;;0.70;;
62588;SDS011;58504;48.770;9.148;2023-04-07T02:44:20;0.70;;;0.70;;
62588;SDS011;58504;48.770;9.148;2023-04-07T02:46:46;0.60;;;0.60;;
62588;SDS011;58504;48.770;9.148;2023-04-07T02:49:13;0.60;;;0.60;;
62588;SDS011;58504;48.770;9.148;2023-04-07T02:51:41;0.50;;;0.50;;
62588;SDS011;58504;48.770;9.148;2023-04-07T02:54:08;0.57;;;0.57;;
62588;SDS011;58504;48.770;9.148;2023-04-07T02:56:35;0.65;;;0.65;;
62588;SDS011;58504;48.770;9.148;2023-04-07T02:59:01;0.60;;;0.60;;
62588;SDS011;58504;48.770;9.148;2023-04-07T03:01:28;0.70;;;0.70;;
62588;SDS011;58504;48.770;9.148;2023-04-07T03:03:55;0.75;;;0.75;;
62588;SDS011;58504;48.770;9.148;2023-04-07T03:06:22;0.60;;;0.60;;
62588;SDS011;58504;48.770;9.148;2023-04-07T03:08:50;0.50;;;0.50;;
62588;SDS011;58504;48.770;9.148;2023-04-07T03:11:16;0.70;;;0.70;;
62588;SDS011;58504;48.770;9.148;2023-04-07T03:13:43;0.57;;;0.57;;
62588;SDS011;58504;48.770;9.148;2023-04-07T03:16:10;0.65;;;0.65;;
62588;SDS011;58504;48.770;9.148;2023-04-07T03:18:36;0.47;;;0.47;;
62588;SDS011;58504;48.770;9.148;2023-04-07T03:21:03;0.70;;;0.70;;
62588;SDS011;58504;48.770;9.148;2023-04-07T03:23:30;0.43;;;0.43;;
62588;SDS011;58504;48.770;9.148;2023-04-07T03:25:58;0.60;;;0.60;;
62588;SDS011;58504;48.770;9.148;2023-04-07T03:28:25;0.52;;;0.52;;
62588;SDS011;58504;48.770;9.148;2023-04-07T03:30:51;0.75;;;0.75;;
62588;SDS011;58504;48.770;9.148;2023-04-07T03:33:18;1.63;;;0.80;;
62588;SDS011;58504;48.770;9.148;2023-04-07T03:35:45;0.50;;;0.50;;
62588;SDS011;58504;48.770;9.148;2023-04-07T03:38:11;0.85;;;0.85;;
62588;SDS011;58504;48.770;9.148;2023-04-07T03:40:38;0.70;;;0.70;;
62588;SDS011;58504;48.770;9.148;2023-04-07T03:43:06;0.50;;;0.50;;
62588;SDS011;58504;48.770;9.148;2023-04-07T03:45:36;0.63;;;0.63;;
62588;SDS011;58504;48.770;9.148;2023-04-07T03:48:03;0.80;;;0.80;;
62588;SDS011;58504;48.770;9.148;2023-04-07T03:50:34;0.90;;;0.90;;
62588;SDS011;58504;48.770;9.148;2023-04-07T03:53:01;0.80;;;0.80;;
62588;SDS011;58504;48.770;9.148;2023-04-07T03:55:28;0.70;;;0.70;;
62588;SDS011;58504;48.770;9.148;2023-04-07T03:57:55;0.60;;;0.60;;
62588;SDS011;58504;48.770;9.148;2023-04-07T04:00:23;0.60;;;0.60;;
62588;SDS011;58504;48.770;9.148;2023-04-07T04:02:51;0.47;;;0.47;;
62588;SDS011;58504;48.770;9.148;2023-04-07T04:05:17;0.63;;;0.63;;
62588;SDS011;58504;48.770;9.148;2023-04-07T04:07:44;0.60;;;0.60;;
62588;SDS011;58504;48.770;9.148;2023-04-07T04:10:11;0.50;;;0.50;;
62588;SDS011;58504;48.770;9.148;2023-04-07T04:12:38;0.60;;;0.60;;
62588;SDS011;58504;48.770;9.148;2023-04-07T04:15:06;0.50;;;0.50;;
62588;SDS011;58504;48.770;9.148;2023-04-07T04:17:34;0.60;;;0.60;;
62588;SDS011;58504;48.770;9.148;2023-04-07T04:20:01;0.68;;;0.68;;
62588;SDS011;58504;48.770;9.148;2023-04-07T04:22:28;0.60;;;0.60;;
62588;SDS011;58504;48.770;9.148;2023-04-07T04:24:55;0.52;;;0.52;;
62588;SDS011;58504;48.770;9.148;2023-04-07T04:27:22;0.50;;;0.50;;
62588;SDS011;58504;48.770;9.148;2023-04-07T04:29:49;0.60;;;0.60;;
62588;SDS011;58504;48.770;9.148;2023-04-07T04:32:15;0.50;;;0.50;;
62588;SDS011;58504;48.770;9.148;2023-04-07T04:34:44;0.40;;;0.40;;
62588;SDS011;58504;48.770;9.148;2023-04-07T04:37:11;0.98;;;0.52;;
62588;SDS011;58504;48.770;9.148;2023-04-07T04:39:38;0.65;;;0.65;;
62588;SDS011;58504;48.770;9.148;2023-04-07T04:42:04;0.52;;;0.52;;
62588;SDS011;58504;48.770;9.148;2023-04-07T04:44:31;0.63;;;0.63;;
62588;SDS011;58504;48.770;9.148;2023-04-07T04:46:58;0.60;;;0.60;;
62588;SDS011;58504;48.770;9.148;2023-04-07T04:49:25;0.50;;;0.50;;
62588;SDS011;58504;48.770;9.148;2023-04-07T04:51:53;0.75;;;0.75;;
62588;SDS011;58504;48.770;9.148;2023-04-07T04:54:19;0.52;;;0.52;;
62588;SDS011;58504;48.770;9.148;2023-04-07T04:56:46;0.50;;;0.50;;
62588;SDS011;58504;48.770;9.148;2023-04-07T04:59:13;0.52;;;0.52;;
62588;SDS011;58504;48.770;9.148;2023-04-07T05:01:40;0.80;;;0.70;;
62588;SDS011;58504;48.770;9.148;2023-04-07T05:04:06;0.52;;;0.52;;
62588;SDS011;58504;48.770;9.148;2023-04-07T05:06:34;0.60;;;0.60;;
62588;SDS011;58504;48.770;9.148;2023-04-07T05:09:02;0.60;;;0.60;;
62588;SDS011;58504;48.770;9.148;2023-04-07T05:11:29;0.63;;;0.63;;
62588;SDS011;58504;48.770;9.148;2023-04-07T05:13:56;0.63;;;0.63;;
62588;SDS011;58504;48.770;9.148;2023-04-07T05:16:22;0.70;;;0.70;;
62588;SDS011;58504;48.770;9.148;2023-04-07T05:18:49;0.40;;;0.40;;
62588;SDS011;58504;48.770;9.148;2023-04-07T05:21:16;0.40;;;0.40;;
62588;SDS011;58504;48.770;9.148;2023-04-07T05:23:44;0.40;;;0.40;;
62588;SDS011;58504;48.770;9.148;2023-04-07T05:26:12;0.50;;;0.50;;
62588;SDS011;58504;48.770;9.148;2023-04-07T05:28:39;0.50;;;0.50;;
62588;SDS011;58504;48.770;9.148;2023-04-07T05:31:07;0.50;;;0.50;;
62588;SDS011;58504;48.770;9.148;2023-04-07T05:33:33;0.55;;;0.55;;
62588;SDS011;58504;48.770;9.148;2023-04-07T05:36:00;0.50;;;0.50;;
62588;SDS011;58504;48.770;9.148;2023-04-07T05:38:27;0.38;;;0.38;;
62588;SDS011;58504;48.770;9.148;2023-04-07T05:40:54;0.50;;;0.50;;
62588;SDS011;58504;48.770;9.148;2023-04-07T05:43:22;0.43;;;0.43;;
62588;SDS011;58504;48.770;9.148;2023-04-07T05:45:48;0.60;;;0.60;;
62588;SDS011;58504;48.770;9.148;2023-04-07T05:48:15;0.70;;;0.70;;
62588;SDS011;58504;48.770;9.148;2023-04-07T05:50:42;0.47;;;0.47;;
62588;SDS011;58504;48.770;9.148;2023-04-07T05:53:09;0.50;;;0.50;;
62588;SDS011;58504;48.770;9.148;2023-04-07T05:55:36;0.57;;;0.57;;
62588;SDS011;58504;48.770;9.148;2023-04-07T05:58:02;0.45;;;0.45;;
62588;SDS011;58504;48.770;9.148;2023-04-07T06:00:30;0.60;;;0.60;;
62588;SDS011;58504;48.770;9.148;2023-04-07T06:02:57;0.40;;;0.40;;
62588;SDS011;58504;48.770;9.148;2023-04-07T06:05:25;0.45;;;0.45;;
62588;SDS011;58504;48.770;9.148;2023-04-07T06:07:52;0.60;;;0.60;;
62588;SDS011;58504;48.770;9.148;2023-04-07T06:10:19;0.60;;;0.52;;
62588;SDS011;58504;48.770;9.148;2023-04-07T06:12:46;0.95;;;0.68;;
62588;SDS011;58504;48.770;9.148;2023-04-07T06:15:13;0.70;;;0.70;;
62588;SDS011;58504;48.770;9.148;2023-04-07T06:17:41;0.40;;;0.40;;
62588;SDS011;58504;48.770;9.148;2023-04-07T06:20:09;0.55;;;0.55;;
62588;SDS011;58504;48.770;9.148;2023-04-07T06:22:37;0.65;;;0.65;;
62588;SDS011;58504;48.770;9.148;2023-04-07T06:25:04;0.45;;;0.45;;
62588;SDS011;58504;48.770;9.148;2023-04-07T06:27:32;0.50;;;0.50;;
62588;SDS011;58504;48.770;9.148;2023-04-07T06:29:59;0.45;;;0.43;;
62588;SDS011;58504;48.770;9.148;2023-04-07T06:32:25;0.60;;;0.60;;
62588;SDS011;58504;48.770;9.148;2023-04-07T06:34:53;0.68;;;0.60;;
62588;SDS011;58504;48.770;9.148;2023-04-07T06:37:20;0.50;;;0.50;;
62588;SDS011;58504;48.770;9.148;2023-04-07T06:39:48;0.50;;;0.50;;
62588;SDS011;58504;48.770;9.148;2023-04-07T06:42:15;0.52;;;0.52;;
62588;SDS011;58504;48.770;9.148;2023-04-07T06:44:42;0.47;;;0.47;;
62588;SDS011;58504;48.770;9.148;2023-04-07T06:47:08;0.40;;;0.40;;
62588;SDS011;58504;48.770;9.148;2023-04-07T06:49:35;0.70;;;0.70;;
62588;SDS011;58504;48.770;9.148;2023-04-07T06:52:04;0.57;;;0.55;;
62588;SDS011;58504;48.770;9.148;2023-04-07T06:54:31;0.50;;;0.50;;
62588;SDS011;58504;48.770;9.148;2023-04-07T06:56:58;0.40;;;0.40;;
62588;SDS011;58504;48.770;9.148;2023-04-07T06:59:25;0.57;;;0.57;;
62588;SDS011;58504;48.770;9.148;2023-04-07T07:01:52;0.70;;;0.70;;
62588;SDS011;58504;48.770;9.148;2023-04-07T07:04:19;0.50;;;0.50;;
62588;SDS011;58504;48.770;9.148;2023-04-07T07:06:45;0.40;;;0.40;;
62588;SDS011;58504;48.770;9.148;2023-04-07T07:09:13;1.23;;;0.60;;
62588;SDS011;58504;48.770;9.148;2023-04-07T07:11:40;0.63;;;0.63;;
62588;SDS011;58504;48.770;9.148;2023-04-07T07:14:07;0.60;;;0.60;;
62588;SDS011;58504;48.770;9.148;2023-04-07T07:16:34;0.68;;;0.68;;
62588;SDS011;58504;48.770;9.148;2023-04-07T07:19:01;1.17;;;1.17;;
62588;SDS011;58504;48.770;9.148;2023-04-07T07:21:28;0.80;;;0.80;;
62588;SDS011;58504;48.770;9.148;2023-04-07T07:23:55;0.55;;;0.55;;
62588;SDS011;58504;48.770;9.148;2023-04-07T07:26:23;0.95;;;0.70;;
62588;SDS011;58504;48.770;9.148;2023-04-07T07:28:50;0.70;;;0.70;;
62588;SDS011;58504;48.770;9.148;2023-04-07T07:31:17;0.68;;;0.68;;
62588;SDS011;58504;48.770;9.148;2023-04-07T07:33:44;0.77;;;0.77;;
62588;SDS011;58504;48.770;9.148;2023-04-07T07:36:12;0.57;;;0.57;;
62588;SDS011;58504;48.770;9.148;2023-04-07T07:38:39;0.38;;;0.38;;
62588;SDS011;58504;48.770;9.148;2023-04-07T07:41:06;0.50;;;0.50;;
62588;SDS011;58504;48.770;9.148;2023-04-07T07:43:34;0.60;;;0.60;;
62588;SDS011;58504;48.770;9.148;2023-04-07T07:46:01;0.88;;;0.88;;
62588;SDS011;58504;48.770;9.148;2023-04-07T07:48:28;0.50;;;0.50;;
62588;SDS011;58504;48.770;9.148;2023-04-07T07:50:55;0.73;;;0.73;;
62588;SDS011;58504;48.770;9.148;2023-04-07T07:53:21;0.55;;;0.55;;
62588;SDS011;58504;48.770;9.148;2023-04-07T07:55:48;0.60;;;0.60;;
62588;SDS011;58504;48.770;9.148;2023-04-07T07:58:15;0.70;;;0.70;;
62588;SDS011;58504;48.770;9.148;2023-04-07T08:00:43;0.70;;;0.70;;
62588;SDS011;58504;48.770;9.148;2023-04-07T08:03:10;0.63;;;0.57;;
62588;SDS011;58504;48.770;9.148;2023-04-07T08:05:37;0.70;;;0.70;;
62588;SDS011;58504;48.770;9.148;2023-04-07T08:08:04;0.50;;;0.50;;
62588;SDS011;58504;48.770;9.148;2023-04-07T08:10:32;2.05;;;0.68;;
62588;SDS011;58504;48.770;9.148;2023-04-07T08:12:58;1.33;;;0.63;;
62588;SDS011;58504;48.770;9.148;2023-04-07T08:15:25;0.95;;;0.73;;
62588;SDS011;58504;48.770;9.148;2023-04-07T08:17:53;0.98;;;0.98;;
62588;SDS011;58504;48.770;9.148;2023-04-07T08:20:20;0.90;;;0.90;;
62588;SDS011;58504;48.770;9.148;2023-04-07T08:22:47;0.60;;;0.60;;
62588;SDS011;58504;48.770;9.148;2023-04-07T08:25:14;0.55;;;0.55;;
62588;SDS011;58504;48.770;9.148;2023-04-07T08:27:41;0.77;;;0.77;;
62588;SDS011;58504;48.770;9.148;2023-04-07T08:30:08;0.90;;;0.90;;
62588;SDS011;58504;48.770;9.148;2023-04-07T08:32:35;0.80;;;0.80;;
62588;SDS011;58504;48.770;9.148;2023-04-07T08:35:04;0.70;;;0.70;;
62588;SDS011;58504;48.770;9.148;2023-04-07T08:37:31;0.60;;;0.60;;
62588;SDS011;58504;48.770;9.148;2023-04-07T08:39:58;0.80;;;0.80;;
62588;SDS011;58504;48.770;9.148;2023-04-07T08:42:26;0.80;;;0.77;;
62588;SDS011;58504;48.770;9.148;2023-04-07T08:44:54;0.73;;;0.73;;
62588;SDS011;58504;48.770;9.148;2023-04-07T08:47:22;0.65;;;0.65;;
62588;SDS011;58504;48.770;9.148;2023-04-07T08:49:51;0.77;;;0.60;;
62588;SDS011;58504;48.770;9.148;2023-04-07T08:52:21;0.50;;;0.50;;
62588;SDS011;58504;48.770;9.148;2023-04-07T08:54:53;1.13;;;0.98;;
62588;SDS011;58504;48.770;9.148;2023-04-07T08:57:22;1.02;;;0.90;;
62588;SDS011;58504;48.770;9.148;2023-04-07T08:59:49;1.40;;;0.65;;
62588;SDS011;58504;48.770;9.148;2023-04-07T09:02:16;0.50;;;0.50;;
62588;SDS011;58504;48.770;9.148;2023-04-07T09:04:44;0.60;;;0.60;;
62588;SDS011;58504;48.770;9.148;2023-04-07T09:07:11;0.38;;;0.38;;
62588;SDS011;58504;48.770;9.148;2023-04-07T09:09:39;0.70;;;0.70;;
62588;SDS011;58504;48.770;9.148;2023-04-07T09:12:06;0.40;;;0.40;;
62588;SDS011;58504;48.770;9.148;2023-04-07T09:14:32;0.63;;;0.57;;
62588;SDS011;58504;48.770;9.148;2023-04-07T09:16:59;0.60;;;0.60;;
62588;SDS011;58504;48.770;9.148;2023-04-07T09:19:26;0.70;;;0.70;;
62588;SDS011;58504;48.770;9.148;2023-04-07T09:21:54;0.38;;;0.38;;
62588;SDS011;58504;48.770;9.148;2023-04-07T09:24:22;0.77;;;0.77;;
62588;SDS011;58504;48.770;9.148;2023-04-07T09:26:52;0.90;;;0.90;;
62588;SDS011;58504;48.770;9.148;2023-04-07T09:29:35;0.70;;;0.70;;
62588;SDS011;58504;48.770;9.148;2023-04-07T09:32:02;0.70;;;0.70;;
62588;SDS011;58504;48.770;9.148;2023-04-07T09:34:30;0.90;;;0.90;;
62588;SDS011;58504;48.770;9.148;2023-04-07T09:36:58;2.28;;;0.98;;
62588;SDS011;58504;48.770;9.148;2023-04-07T09:39:25;2.60;;;1.08;;
62588;SDS011;58504;48.770;9.148;2023-04-07T09:41:54;3.25;;;2.33;;
62588;SDS011;58504;48.770;9.148;2023-04-07T09:44:21;2.40;;;2.20;;
62588;SDS011;58504;48.770;9.148;2023-04-07T09:46:49;3.70;;;3.40;;
62588;SDS011;58504;48.770;9.148;2023-04-07T09:49:16;2.95;;;2.60;;
62588;SDS011;58504;48.770;9.148;2023-04-07T09:51:54;3.50;;;2.97;;
62588;SDS011;58504;48.770;9.148;2023-04-07T09:54:32;3.92;;;3.00;;
62588;SDS011;58504;48.770;9.148;2023-04-07T09:57:01;4.28;;;3.13;;
62588;SDS011;58504;48.770;9.148;2023-04-07T09:59:28;4.25;;;2.65;;
62588;SDS011;58504;48.770;9.148;2023-04-07T10:01:56;2.55;;;2.35;;
62588;SDS011;58504;48.770;9.148;2023-04-07T10:04:24;6.00;;;3.58;;
62588;SDS011;58504;48.770;9.148;2023-04-07T10:06:51;3.55;;;2.63;;
62588;SDS011;58504;48.770;9.148;2023-04-07T10:09:19;4.07;;;2.80;;
62588;SDS011;58504;48.770;9.148;2023-04-07T10:11:47;3.58;;;3.17;;
62588;SDS011;58504;48.770;9.148;2023-04-07T10:14:16;3.28;;;2.80;;
62588;SDS011;58504;48.770;9.148;2023-04-07T10:16:44;3.67;;;2.97;;
62588;SDS011;58504;48.770;9.148;2023-04-07T10:19:12;4.65;;;2.67;;
62588;SDS011;58504;48.770;9.148;2023-04-07T10:21:40;3.75;;;2.90;;
62588;SDS011;58504;48.770;9.148;2023-04-07T10:24:12;6.82;;;3.55;;
62588;SDS011;58504;48.770;9.148;2023-04-07T10:26:50;3.45;;;2.95;;
62588;SDS011;58504;48.770;9.148;2023-04-07T10:29:21;3.17;;;2.90;;
62588;SDS011;58504;48.770;9.148;2023-04-07T10:31:49;3.75;;;2.90;;
62588;SDS011;58504;48.770;9.148;2023-04-07T10:34:21;2.80;;;2.50;;
62588;SDS011;58504;48.770;9.148;2023-04-07T10:37:22;6.30;;;3.67;;
62588;SDS011;58504;48.770;9.148;2023-04-07T10:39:50;3.33;;;3.03;;
62588;SDS011;58504;48.770;9.148;2023-04-07T10:45:11;2.13;;;1.80;;
62588;SDS011;58504;48.770;9.148;2023-04-07T10:48:07;4.15;;;1.98;;
62588;SDS011;58504;48.770;9.148;2023-04-07T10:50:35;1.70;;;1.30;;
62588;SDS011;58504;48.770;9.148;2023-04-07T10:53:06;4.78;;;1.50;;
62588;SDS011;58504;48.770;9.148;2023-04-07T10:55:34;4.63;;;1.80;;
62588;SDS011;58504;48.770;9.148;2023-04-07T11:03:57;1.80;;;1.52;;
62588;SDS011;58504;48.770;9.148;2023-04-07T11:06:29;1.30;;;1.20;;
62588;SDS011;58504;48.770;9.148;2023-04-07T11:08:56;1.23;;;1.10;;
62588;SDS011;58504;48.770;9.148;2023-04-07T11:11:36;1.10;;;1.10;;
62588;SDS011;58504;48.770;9.148;2023-04-07T11:14:04;1.30;;;1.20;;
62588;SDS011;58504;48.770;9.148;2023-04-07T11:16:35;1.40;;;1.08;;
62588;SDS011;58504;48.770;9.148;2023-04-07T11:19:05;1.80;;;1.40;;
62588;SDS011;58504;48.770;9.148;2023-04-07T11:21:32;2.35;;;1.30;;
62588;SDS011;58504;48.770;9.148;2023-04-07T11:24:00;1.08;;;0.90;;
62588;SDS011;58504;48.770;9.148;2023-04-07T11:26:27;3.03;;;1.35;;
62588;SDS011;58504;48.770;9.148;2023-04-07T11:28:55;1.45;;;1.27;;
62588;SDS011;58504;48.770;9.148;2023-04-07T11:31:23;1.48;;;1.30;;
62588;SDS011;58504;48.770;9.148;2023-04-07T11:33:51;2.70;;;1.50;;
62588;SDS011;58504;48.770;9.148;2023-04-07T11:36:27;4.85;;;1.88;;
62588;SDS011;58504;48.770;9.148;2023-04-07T11:38:55;7.07;;;1.35;;
62588;SDS011;58504;48.770;9.148;2023-04-07T11:41:22;1.90;;;1.33;;
62588;SDS011;58504;48.770;9.148;2023-04-07T11:44:02;2.22;;;1.48;;
62588;SDS011;58504;48.770;9.148;2023-04-07T11:46:30;2.00;;;1.55;;
62588;SDS011;58504;48.770;9.148;2023-04-07T11:49:07;2.95;;;1.38;;
62588;SDS011;58504;48.770;9.148;2023-04-07T11:51:36;2.75;;;1.30;;
62588;SDS011;58504;48.770;9.148;2023-04-07T11:54:03;1.38;;;1.15;;
62588;SDS011;58504;48.770;9.148;2023-04-07T11:56:40;1.27;;;1.10;;
62588;SDS011;58504;48.770;9.148;2023-04-07T11:59:08;4.32;;;1.42;;
62588;SDS011;58504;48.770;9.148;2023-04-07T12:01:44;2.15;;;1.33;;
62588;SDS011;58504;48.770;9.148;2023-04-07T12:04:12;3.90;;;1.50;;
62588;SDS011;58504;48.770;9.148;2023-04-07T12:06:41;2.55;;;1.35;;
62588;SDS011;58504;48.770;9.148;2023-04-07T12:09:22;1.95;;;1.65;;
62588;SDS011;58504;48.770;9.148;2023-04-07T12:11:51;7.15;;;1.60;;
62588;SDS011;58504;48.770;9.148;2023-04-07T12:14:18;4.65;;;1.30;;
62588;SDS011;58504;48.770;9.148;2023-04-07T12:16:45;5.38;;;1.58;;
62588;SDS011;58504;48.770;9.148;2023-04-07T12:19:12;2.08;;;1.17;;
62588;SDS011;58504;48.770;9.148;2023-04-07T12:21:38;3.20;;;1.70;;
62588;SDS011;58504;48.770;9.148;2023-04-07T12:24:07;1.60;;;1.30;;
62588;SDS011;58504;48.770;9.148;2023-04-07T12:26:34;7.82;;;1.83;;
62588;SDS011;58504;48.770;9.148;2023-04-07T12:29:01;1.85;;;1.60;;
62588;SDS011;58504;48.770;9.148;2023-04-07T12:31:29;1.52;;;1.13;;
62588;SDS011;58504;48.770;9.148;2023-04-07T12:33:56;3.55;;;1.67;;
62588;SDS011;58504;48.770;9.148;2023-04-07T12:36:23;1.40;;;1.05;;
62588;SDS011;58504;48.770;9.148;2023-04-07T12:38:51;4.68;;;1.55;;
62588;SDS011;58504;48.770;9.148;2023-04-07T12:41:18;3.65;;;1.35;;
62588;SDS011;58504;48.770;9.148;2023-04-07T12:43:45;6.28;;;1.60;;
62588;SDS011;58504;48.770;9.148;2023-04-07T12:46:11;12.15;;;1.77;;
62588;SDS011;58504;48.770;9.148;2023-04-07T12:48:38;2.35;;;1.38;;
62588;SDS011;58504;48.770;9.148;2023-04-07T12:51:05;3.33;;;1.20;;
62588;SDS011;58504;48.770;9.148;2023-04-07T12:53:32;2.40;;;1.30;;
62588;SDS011;58504;48.770;9.148;2023-04-07T12:56:00;1.98;;;1.30;;
62588;SDS011;58504;48.770;9.148;2023-04-07T12:58:27;1.85;;;1.08;;
62588;SDS011;58504;48.770;9.148;2023-04-07T13:00:54;2.80;;;1.40;;
62588;SDS011;58504;48.770;9.148;2023-04-07T13:03:22;2.55;;;0.80;;
62588;SDS011;58504;48.770;9.148;2023-04-07T13:05:49;4.47;;;1.10;;
62588;SDS011;58504;48.770;9.148;2023-04-07T13:08:18;5.95;;;1.80;;
62588;SDS011;58504;48.770;9.148;2023-04-07T13:10:45;5.10;;;1.35;;
62588;SDS011;58504;48.770;9.148;2023-04-07T13:13:13;3.90;;;1.35;;
62588;SDS011;58504;48.770;9.148;2023-04-07T13:15:40;2.70;;;1.00;;
62588;SDS011;58504;48.770;9.148;2023-04-07T13:18:07;4.15;;;1.48;;
62588;SDS011;58504;48.770;9.148;2023-04-07T13:20:33;2.17;;;1.08;;
62588;SDS011;58504;48.770;9.148;2023-04-07T13:23:00;1.92;;;1.10;;
62588;SDS011;58504;48.770;9.148;2023-04-07T13:25:27;1.05;;;0.98;;
62588;SDS011;58504;48.770;9.148;2023-04-07T13:27:54;1.10;;;1.10;;
62588;SDS011;58504;48.770;9.148;2023-04-07T13:30:22;4.72;;;1.27;;
62588;SDS011;58504;48.770;9.148;2023-04-07T13:32:49;3.08;;;1.45;;
62588;SDS011;58504;48.770;9.148;2023-04-07T13:35:16;1.80;;;1.20;;
62588;SDS011;58504;48.770;9.148;2023-04-07T13:37:43;2.58;;;1.63;;
62588;SDS011;58504;48.770;9.148;2023-04-07T13:40:10;2.17;;;1.20;;
62588;SDS011;58504;48.770;9.148;2023-04-07T13:42:37;2.25;;;1.30;;
62588;SDS011;58504;48.770;9.148;2023-04-07T13:45:04;3.53;;;1.35;;
62588;SDS011;58504;48.770;9.148;2023-04-07T13:47:33;5.35;;;1.67;;
62588;SDS011;58504;48.770;9.148;2023-04-07T13:50:00;3.08;;;1.73;;
62588;SDS011;58504;48.770;9.148;2023-04-07T13:52:28;4.45;;;0.88;;
62588;SDS011;58504;48.770;9.148;2023-04-07T13:54:56;3.30;;;1.33;;
62588;SDS011;58504;48.770;9.148;2023-04-07T13:57:23;4.47;;;1.52;;
62588;SDS011;58504;48.770;9.148;2023-04-07T13:59:50;2.03;;;1.20;;
62588;SDS011;58504;48.770;9.148;2023-04-07T14:02:17;2.20;;;1.38;;
62588;SDS011;58504;48.770;9.148;2023-04-07T14:04:45;3.00;;;0.95;;
62588;SDS011;58504;48.770;9.148;2023-04-07T14:07:12;1.05;;;0.80;;
62588;SDS011;58504;48.770;9.148;2023-04-07T14:09:39;2.63;;;1.10;;
62588;SDS011;58504;48.770;9.148;2023-04-07T14:12:06;1.25;;;1.15;;
62588;SDS011;58504;48.770;9.148;2023-04-07T14:14:33;1.52;;;1.40;;
62588;SDS011;58504;48.770;9.148;2023-04-07T14:17:01;4.03;;;2.13;;
62588;SDS011;58504;48.770;9.148;2023-04-07T14:19:28;3.55;;;2.80;;
62588;SDS011;58504;48.770;9.148;2023-04-07T14:21:57;10.20;;;5.70;;
62588;SDS011;58504;48.770;9.148;2023-04-07T14:24:24;14.90;;;9.38;;
62588;SDS011;58504;48.770;9.148;2023-04-07T14:26:51;18.23;;;12.13;;
62588;SDS011;58504;48.770;9.148;2023-04-07T14:29:18;20.15;;;14.77;;
62588;SDS011;58504;48.770;9.148;2023-04-07T14:31:45;35.13;;;20.98;;
62588;SDS011;58504;48.770;9.148;2023-04-07T14:34:13;51.28;;;32.15;;
62588;SDS011;58504;48.770;9.148;2023-04-07T14:36:40;60.67;;;35.33;;
62588;SDS011;58504;48.770;9.148;2023-04-07T14:39:08;77.63;;;43.75;;
62588;SDS011;58504;48.770;9.148;2023-04-07T14:41:36;94.07;;;51.53;;
62588;SDS011;58504;48.770;9.148;2023-04-07T14:44:03;102.75;;;55.00;;
62588;SDS011;58504;48.770;9.148;2023-04-07T14:46:30;117.78;;;62.67;;
62588;SDS011;58504;48.770;9.148;2023-04-07T14:48:57;118.53;;;63.65;;
62588;SDS011;58504;48.770;9.148;2023-04-07T14:51:24;123.47;;;68.68;;
62588;SDS011;58504;48.770;9.148;2023-04-07T14:53:51;93.30;;;48.88;;
62588;SDS011;58504;48.770;9.148;2023-04-07T14:56:21;98.65;;;48.78;;
62588;SDS011;58504;48.770;9.148;2023-04-07T14:58:48;119.97;;;62.53;;